Time;durP1;ratioP1;P1;durP2;ratioP2;P2;SDS_P1;SDS_P2;PMS_P1;PMS_P2;Temp;Humidity;BMP_temperature;BMP_pressure;BME280_temperature;BME280_humidity;BME280_pressure;Samples;Min_cycle;Max_cycle;Signal;HPM_P1;HPM_P2
2022/09/17 00:00:25;;;;;;;;;;;;;;;13.12;100.00;98465.47;5050201;28;19927;-44
2022/09/17 00:02:54;;;;;;;;;;;;;;;13.30;100.00;98464.56;5054239;28;20356;-44
2022/09/17 00:05:19;;;;;;;;;;;;;;;12.96;100.00;98466.22;5067332;28;19931;-44
2022/09/17 00:07:45;;;;;;;;;;;;;;;13.03;100.00;98477.09;5053428;28;19920;-44
2022/09/17 00:10:10;;;;;;;;;;;;;;;12.94;100.00;98488.72;5054204;28;19916;-44
2022/09/17 00:12:35;;;;;;;;;;;;;;;13.23;100.00;98496.78;5068645;28;20950;-44
2022/09/17 00:15:00;;;;;;;;;;;;;;;12.80;100.00;98493.75;5071747;28;19990;-44
2022/09/17 00:17:26;;;;;;;;;;;;;;;12.67;100.00;98511.59;5073076;28;20022;-44
2022/09/17 00:19:51;;;;;;;;;;;;;;;13.09;100.00;98513.00;5051855;28;19947;-44
2022/09/17 00:22:16;;;;;;;;;;;;;;;12.93;100.00;98515.50;5053345;28;19977;-44
2022/09/17 00:24:41;;;;;;;;;;;;;;;12.88;100.00;98512.28;5069267;28;19931;-44
2022/09/17 00:27:07;;;;;;;;;;;;;;;12.69;100.00;98527.03;5049735;28;19991;-44
2022/09/17 00:29:32;;;;;;;;;;;;;;;13.08;100.00;98524.22;5070137;28;19924;-44
2022/09/17 00:31:57;;;;;;;;;;;;;;;13.34;100.00;98547.97;5072099;28;19919;-44
2022/09/17 00:34:22;;;;;;;;;;;;;;;12.95;100.00;98539.53;5051912;28;19926;-44
2022/09/17 00:36:48;;;;;;;;;;;;;;;13.13;100.00;98539.50;5073345;28;19916;-44
2022/09/17 00:39:15;;;;;;;;;;;;;;;12.48;100.00;98545.22;5053652;28;19985;-44
2022/09/17 00:41:40;;;;;;;;;;;;;;;12.93;100.00;98554.28;5026808;28;19927;-44
2022/09/17 00:44:25;;;;;;;;;;;;;;;13.15;100.00;98558.38;5045021;28;20281;-44
2022/09/17 00:46:52;;;;;;;;;;;;;;;13.02;100.00;98552.13;5036006;28;19970;-44
2022/09/17 00:49:25;;;;;;;;;;;;;;;12.95;100.00;98547.28;5072413;28;19916;-43
2022/09/17 00:52:01;;;;;;;;;;;;;;;12.89;100.00;98555.31;5054065;28;19915;-43
2022/09/17 00:54:26;;;;;;;;;;;;;;;13.02;100.00;98563.31;5052130;28;19930;-43
2022/09/17 00:56:51;;;;;;;;;;;;;;;12.63;100.00;98560.91;5054350;28;19935;-43
2022/09/17 00:59:17;;;;;;;;;;;;;;;12.96;100.00;98574.78;5070356;28;19955;-43
2022/09/17 01:01:42;;;;;;;;;;;;;;;13.18;100.00;98572.00;5070874;28;20399;-43
2022/09/17 01:04:14;;;;;;;;;;;;;;;13.18;100.00;98574.59;5073142;28;20300;-43
2022/09/17 01:06:41;;;;;;;;;;;;;;;12.94;100.00;98565.44;5071300;28;20557;-44
2022/09/17 01:09:06;;;;;;;;;;;;;;;13.03;100.00;98571.91;5051303;28;19924;-43
2022/09/17 01:11:42;;;;;;;;;;;;;;;13.09;100.00;98564.69;5067746;28;20411;-43
2022/09/17 01:14:16;;;;;;;;;;;;;;;13.43;100.00;98559.59;5047739;28;19920;-43
2022/09/17 01:17:17;;;;;;;;;;;;;;;13.42;100.00;98560.53;5069643;28;20010;-43
2022/09/17 01:19:44;;;;;;;;;;;;;;;13.32;100.00;98566.16;4986485;28;19932;-43
2022/09/17 01:22:28;;;;;;;;;;;;;;;12.85;100.00;98561.56;5054847;28;19916;-43
2022/09/17 01:24:53;;;;;;;;;;;;;;;13.30;100.00;98549.88;5072042;28;19943;-43
2022/09/17 01:27:28;;;;;;;;;;;;;;;13.46;100.00;98552.53;5070080;28;19923;-45
2022/09/17 01:29:53;;;;;;;;;;;;;;;13.26;100.00;98553.50;5066828;28;19976;-43
2022/09/17 01:32:29;;;;;;;;;;;;;;;13.71;100.00;98553.88;5068050;28;19919;-44
2022/09/17 01:35:02;;;;;;;;;;;;;;;13.71;100.00;98540.94;5052247;28;19927;-43
2022/09/17 01:37:33;;;;;;;;;;;;;;;13.13;100.00;98531.75;5051305;28;19927;-43
2022/09/17 01:40:25;;;;;;;;;;;;;;;13.53;100.00;98542.72;5068908;28;19920;-43
2022/09/17 01:42:53;;;;;;;;;;;;;;;13.33;100.00;98544.56;5030572;28;19920;-43
2022/09/17 01:45:21;;;;;;;;;;;;;;;13.81;100.00;98536.94;5051686;28;19920;-43
2022/09/17 01:47:48;;;;;;;;;;;;;;;13.78;100.00;98544.88;5048244;28;19935;-43
2022/09/17 01:50:19;;;;;;;;;;;;;;;13.80;100.00;98530.94;5050559;28;19920;-43
2022/09/17 01:52:44;;;;;;;;;;;;;;;14.36;100.00;98520.16;5051559;28;19965;-43
2022/09/17 01:55:10;;;;;;;;;;;;;;;13.90;100.00;98514.91;5054187;28;19920;-43
2022/09/17 01:57:40;;;;;;;;;;;;;;;13.78;100.00;98512.06;5033081;28;20809;-43
2022/09/17 02:00:08;;;;;;;;;;;;;;;13.49;100.00;98530.84;5051826;28;20048;-43
2022/09/17 02:02:37;;;;;;;;;;;;;;;13.47;100.00;98535.25;5046313;28;19993;-43
2022/09/17 02:05:06;;;;;;;;;;;;;;;13.65;100.00;98536.91;5069240;28;19923;-43
2022/09/17 02:07:31;;;;;;;;;;;;;;;14.04;100.00;98514.16;5070627;28;20464;-43
2022/09/17 02:09:58;;;;;;;;;;;;;;;13.49;100.00;98516.16;5051663;28;19920;-43
2022/09/17 02:12:27;;;;;;;;;;;;;;;13.30;100.00;98525.78;5064629;28;19919;-44
2022/09/17 02:14:53;;;;;;;;;;;;;;;13.42;100.00;98534.66;5049291;28;20057;-43
2022/09/17 02:17:23;;;;;;;;;;;;;;;13.25;100.00;98538.06;5049568;28;20292;-44
2022/09/17 02:19:49;;;;;;;;;;;;;;;13.38;100.00;98552.06;5052828;28;19942;-43
2022/09/17 02:22:28;;;;;;;;;;;;;;;13.12;100.00;98548.19;5050509;28;20380;-44
2022/09/17 02:24:56;;;;;;;;;;;;;;;13.15;100.00;98550.63;5074624;28;19974;-44
2022/09/17 02:27:23;;;;;;;;;;;;;;;13.35;100.00;98547.91;5072600;28;19967;-43
2022/09/17 02:29:48;;;;;;;;;;;;;;;12.83;100.00;98547.03;5072544;28;20179;-43
2022/09/17 02:32:13;;;;;;;;;;;;;;;13.02;100.00;98552.13;5051825;28;19920;-43
2022/09/17 02:34:39;;;;;;;;;;;;;;;13.45;100.00;98545.69;5056778;28;19916;-43
2022/09/17 02:37:04;;;;;;;;;;;;;;;13.07;100.00;98539.81;5072079;28;19924;-43
2022/09/17 02:39:30;;;;;;;;;;;;;;;12.91;100.00;98548.34;5069034;28;19932;-44
2022/09/17 02:42:10;;;;;;;;;;;;;;;13.08;100.00;98551.84;5017390;28;19948;-44
2022/09/17 02:44:44;;;;;;;;;;;;;;;12.82;100.00;98547.94;5073156;28;20011;-43
2022/09/17 02:47:18;;;;;;;;;;;;;;;13.35;100.00;98552.25;5072719;28;19925;-43
2022/09/17 02:49:52;;;;;;;;;;;;;;;12.91;100.00;98553.50;5075740;28;19920;-44
2022/09/17 02:52:36;;;;;;;;;;;;;;;12.49;100.00;98559.78;5073009;28;19920;-43
2022/09/17 02:55:06;;;;;;;;;;;;;;;12.91;100.00;98565.59;5075230;28;19916;-43
2022/09/17 02:57:52;;;;;;;;;;;;;;;13.06;100.00;98543.31;5045637;28;20377;-43
2022/09/17 03:00:18;;;;;;;;;;;;;;;12.81;100.00;98548.84;5054112;28;20676;-43
2022/09/17 03:02:49;;;;;;;;;;;;;;;13.19;100.00;98544.38;5071320;28;19927;-43
2022/09/17 03:05:16;;;;;;;;;;;;;;;12.64;100.00;98547.09;5041708;28;20761;-43
2022/09/17 03:07:41;;;;;;;;;;;;;;;12.86;100.00;98552.03;5051165;28;20451;-43
2022/09/17 03:10:06;;;;;;;;;;;;;;;12.78;100.00;98549.84;5075427;28;19942;-43
2022/09/17 03:12:32;;;;;;;;;;;;;;;12.76;100.00;98552.47;5070028;28;19924;-43
2022/09/17 03:14:57;;;;;;;;;;;;;;;12.68;100.00;98561.50;5072100;28;19926;-43
2022/09/17 03:17:22;;;;;;;;;;;;;;;13.27;100.00;98556.91;5068955;28;19925;-43
2022/09/17 03:19:47;;;;;;;;;;;;;;;13.23;100.00;98532.97;5074396;28;20010;-43
2022/09/17 03:22:12;;;;;;;;;;;;;;;13.12;100.00;98543.84;5071357;28;20074;-43
2022/09/17 03:24:38;;;;;;;;;;;;;;;12.93;100.00;98546.53;5073816;28;19994;-43
2022/09/17 03:27:03;;;;;;;;;;;;;;;13.06;100.00;98548.50;5071195;28;19966;-43
2022/09/17 03:29:28;;;;;;;;;;;;;;;12.84;100.00;98539.22;5073783;28;19924;-43
2022/09/17 03:31:53;;;;;;;;;;;;;;;12.85;100.00;98551.22;5073013;28;19983;-43
2022/09/17 03:34:19;;;;;;;;;;;;;;;12.55;100.00;98554.34;5061995;28;19971;-43
2022/09/17 03:36:45;;;;;;;;;;;;;;;12.86;100.00;98549.47;5071224;28;19999;-43
2022/09/17 03:39:10;;;;;;;;;;;;;;;13.30;100.00;98542.13;5074563;28;20452;-43
2022/09/17 03:41:35;;;;;;;;;;;;;;;12.69;100.00;98551.13;5072624;28;20003;-43
2022/09/17 03:44:00;;;;;;;;;;;;;;;12.93;100.00;98554.28;5072263;28;20317;-43
2022/09/17 03:46:26;;;;;;;;;;;;;;;12.94;100.00;98558.50;5070895;28;20023;-43
2022/09/17 03:48:51;;;;;;;;;;;;;;;13.19;100.00;98549.56;5071284;28;20039;-43
2022/09/17 03:51:16;;;;;;;;;;;;;;;13.30;100.00;98549.06;5072490;28;19919;-43
2022/09/17 03:53:41;;;;;;;;;;;;;;;13.26;100.00;98550.09;5072444;28;19924;-43
2022/09/17 03:56:07;;;;;;;;;;;;;;;12.71;100.00;98551.88;5073342;28;19916;-43
2022/09/17 03:58:32;;;;;;;;;;;;;;;13.06;100.00;98558.81;5061747;28;19984;-43
2022/09/17 04:00:57;;;;;;;;;;;;;;;12.63;100.00;98568.66;5072566;28;19916;-43
2022/09/17 04:03:23;;;;;;;;;;;;;;;12.76;100.00;98562.81;5070645;28;19916;-43
2022/09/17 04:05:48;;;;;;;;;;;;;;;12.86;100.00;98567.53;5073033;28;19920;-43
2022/09/17 04:08:13;;;;;;;;;;;;;;;13.07;100.00;98565.66;5071721;28;19925;-43
2022/09/17 04:10:39;;;;;;;;;;;;;;;12.40;100.00;98569.72;5071736;28;20532;-43
2022/09/17 04:13:04;;;;;;;;;;;;;;;12.80;100.00;98573.88;5069687;28;19924;-43
2022/09/17 04:15:29;;;;;;;;;;;;;;;12.82;100.00;98572.03;5053931;28;19925;-43
2022/09/17 04:17:56;;;;;;;;;;;;;;;12.96;100.00;98574.78;5070036;28;20357;-43
2022/09/17 04:20:22;;;;;;;;;;;;;;;13.16;100.00;98565.22;5069681;28;20031;-43
2022/09/17 04:22:47;;;;;;;;;;;;;;;13.13;100.00;98565.38;5072193;28;19982;-43
2022/09/17 04:25:12;;;;;;;;;;;;;;;12.83;100.00;98568.53;5072151;28;19931;-43
2022/09/17 04:27:37;;;;;;;;;;;;;;;12.26;100.00;98572.94;5071295;28;19924;-43
2022/09/17 04:30:03;;;;;;;;;;;;;;;12.55;100.00;98572.44;5071983;28;20316;-43
2022/09/17 04:32:28;;;;;;;;;;;;;;;12.08;100.00;98569.44;5059833;28;19920;-43
2022/09/17 04:34:53;;;;;;;;;;;;;;;12.74;100.00;98574.16;5073344;28;19923;-43
2022/09/17 04:37:18;;;;;;;;;;;;;;;12.52;100.00;98577.75;5068873;28;20753;-43
2022/09/17 04:39:44;;;;;;;;;;;;;;;12.04;100.00;98573.94;5071909;28;20288;-43
2022/09/17 04:42:09;;;;;;;;;;;;;;;12.61;100.00;98578.22;5069904;28;20850;-43
2022/09/17 04:44:34;;;;;;;;;;;;;;;12.62;100.00;98585.06;5072681;28;20723;-43
2022/09/17 04:46:59;;;;;;;;;;;;;;;12.59;100.00;98586.06;5066766;28;20399;-43
2022/09/17 04:49:28;;;;;;;;;;;;;;;12.72;100.00;98586.28;5071353;28;20627;-43
2022/09/17 04:51:53;;;;;;;;;;;;;;;12.52;100.00;98585.50;5070539;28;20292;-43
2022/09/17 04:54:19;;;;;;;;;;;;;;;12.91;100.00;98584.53;5072629;28;19923;-43
2022/09/17 04:56:44;;;;;;;;;;;;;;;12.74;100.00;98576.72;5071240;28;19920;-43
2022/09/17 04:59:09;;;;;;;;;;;;;;;12.74;100.00;98581.91;5070544;28;19924;-43
2022/09/17 05:01:34;;;;;;;;;;;;;;;12.75;100.00;98586.16;5069866;28;19931;-43
2022/09/17 05:04:00;;;;;;;;;;;;;;;12.98;100.00;98590.22;5072499;28;19920;-43
2022/09/17 05:06:25;;;;;;;;;;;;;;;13.21;100.00;98589.09;5067849;28;19920;-43
2022/09/17 05:08:50;;;;;;;;;;;;;;;13.53;100.00;98581.53;5071670;28;20019;-43
2022/09/17 05:11:15;;;;;;;;;;;;;;;13.30;100.00;98577.50;5067967;28;19931;-43
2022/09/17 05:13:41;;;;;;;;;;;;;;;13.13;100.00;98573.94;5067883;28;19919;-43
2022/09/17 05:16:06;;;;;;;;;;;;;;;13.19;100.00;98576.25;5068424;28;19974;-43
2022/09/17 05:18:31;;;;;;;;;;;;;;;12.96;100.00;98584.31;5070284;28;19926;-43
2022/09/17 05:20:56;;;;;;;;;;;;;;;12.95;100.00;98588.63;5068551;28;19920;-43
2022/09/17 05:23:22;;;;;;;;;;;;;;;12.50;100.00;98592.47;5067976;28;19924;-43
2022/09/17 05:25:47;;;;;;;;;;;;;;;12.77;100.00;98594.66;5072859;28;19916;-43
2022/09/17 05:28:12;;;;;;;;;;;;;;;12.35;100.00;98590.59;5071158;28;19998;-43
2022/09/17 05:30:38;;;;;;;;;;;;;;;12.68;100.00;98595.09;5072173;28;19924;-43
2022/09/17 05:33:04;;;;;;;;;;;;;;;12.49;100.00;98601.13;5069913;28;20035;-43
2022/09/17 05:35:30;;;;;;;;;;;;;;;12.79;100.00;98608.34;5070797;28;19969;-43
2022/09/17 05:37:59;;;;;;;;;;;;;;;12.98;100.00;98604.00;5050157;28;20335;-43
2022/09/17 05:40:24;;;;;;;;;;;;;;;12.69;100.00;98607.13;5070269;28;19920;-43
2022/09/17 05:42:49;;;;;;;;;;;;;;;13.70;100.00;98586.66;5067142;28;20308;-43
2022/09/17 05:45:15;;;;;;;;;;;;;;;12.86;100.00;98594.22;5069790;28;20287;-43
2022/09/17 05:47:40;;;;;;;;;;;;;;;12.89;100.00;98588.94;5068534;28;20663;-43
2022/09/17 05:50:05;;;;;;;;;;;;;;;12.42;100.00;98594.56;5070782;28;20458;-43
2022/09/17 05:52:30;;;;;;;;;;;;;;;13.01;100.00;98599.59;5072299;28;20326;-43
2022/09/17 05:54:56;;;;;;;;;;;;;;;12.89;100.00;98601.84;5073353;28;19923;-43
2022/09/17 05:57:21;;;;;;;;;;;;;;;12.54;100.00;98606.94;5073458;28;20455;-43
2022/09/17 05:59:46;;;;;;;;;;;;;;;13.05;100.00;98614.03;5076225;28;19969;-43
2022/09/17 06:02:14;;;;;;;;;;;;;;;12.74;100.00;98618.06;5054228;28;20358;-42
2022/09/17 06:04:39;;;;;;;;;;;;;;;13.51;100.00;98612.63;5074464;28;20050;-43
2022/09/17 06:07:08;;;;;;;;;;;;;;;13.39;100.00;98618.44;5070792;28;19920;-43
2022/09/17 06:09:36;;;;;;;;;;;;;;;13.30;100.00;98622.31;5075213;28;19939;-43
2022/09/17 06:12:02;;;;;;;;;;;;;;;13.38;100.00;98622.75;5069470;28;19927;-43
2022/09/17 06:14:27;;;;;;;;;;;;;;;13.96;100.00;98618.13;5074572;28;19923;-43
2022/09/17 06:16:53;;;;;;;;;;;;;;;13.22;100.00;98610.63;5073552;28;20278;-42
2022/09/17 06:19:18;;;;;;;;;;;;;;;12.80;100.00;98624.72;5057712;28;20027;-42
2022/09/17 06:21:44;;;;;;;;;;;;;;;13.44;100.00;98625.97;5073479;28;19955;-42
2022/09/17 06:24:09;;;;;;;;;;;;;;;13.81;100.00;98620.59;5057736;28;19966;-43
2022/09/17 06:26:34;;;;;;;;;;;;;;;13.87;100.00;98618.63;5074838;28;19924;-42
2022/09/17 06:28:59;;;;;;;;;;;;;;;13.42;100.00;98623.44;5075295;28;19924;-43
2022/09/17 06:31:25;;;;;;;;;;;;;;;13.11;100.00;98624.94;5073581;28;19970;-43
2022/09/17 06:33:50;;;;;;;;;;;;;;;13.60;100.00;98632.03;5058950;28;19925;-43
2022/09/17 06:36:15;;;;;;;;;;;;;;;14.31;100.00;98613.69;5073610;28;19924;-42
2022/09/17 06:38:40;;;;;;;;;;;;;;;13.81;100.00;98615.41;5054072;28;19966;-43
2022/09/17 06:41:06;;;;;;;;;;;;;;;13.66;100.00;98621.38;5074416;28;19959;-42
2022/09/17 06:43:31;;;;;;;;;;;;;;;13.80;100.00;98618.09;5074763;28;20012;-43
2022/09/17 06:46:00;;;;;;;;;;;;;;;13.90;100.00;98613.28;5074653;28;20524;-43
2022/09/17 06:48:26;;;;;;;;;;;;;;;14.11;100.00;98606.97;5073050;28;20354;-42
2022/09/17 06:50:53;;;;;;;;;;;;;;;14.43;100.00;98601.81;5074690;28;20701;-42
2022/09/17 06:53:18;;;;;;;;;;;;;;;14.23;100.00;98606.31;5076400;28;19916;-43
2022/09/17 06:55:44;;;;;;;;;;;;;;;13.79;100.00;98606.06;5073319;28;19947;-42
2022/09/17 06:58:09;;;;;;;;;;;;;;;13.50;100.00;98620.47;5043840;28;19927;-42
2022/09/17 07:00:35;;;;;;;;;;;;;;;14.37;100.00;98615.94;5073235;28;19931;-43
2022/09/17 07:03:00;;;;;;;;;;;;;;;13.62;100.00;98624.22;5072034;28;19920;-43
2022/09/17 07:05:26;;;;;;;;;;;;;;;14.01;100.00;98627.31;5074738;28;19916;-43
2022/09/17 07:07:51;;;;;;;;;;;;;;;13.27;100.00;98632.75;5066340;28;19968;-42
2022/09/17 07:10:16;;;;;;;;;;;;;;;13.69;100.00;98631.56;5074691;28;20419;-43
2022/09/17 07:12:42;;;;;;;;;;;;;;;13.80;100.00;98625.84;5070003;28;19989;-42
2022/09/17 07:15:10;;;;;;;;;;;;;;;13.87;100.00;98618.63;5074848;28;19912;-42
2022/09/17 07:17:35;;;;;;;;;;;;;;;14.19;100.00;98610.00;5071359;28;20471;-43
2022/09/17 07:20:00;;;;;;;;;;;;;;;13.94;100.00;98614.78;5069250;28;19924;-42
2022/09/17 07:22:25;;;;;;;;;;;;;;;14.66;100.00;98612.72;5070035;28;20413;-42
2022/09/17 07:24:51;;;;;;;;;;;;;;;13.92;100.00;98611.44;5071503;28;19981;-42
2022/09/17 07:27:16;;;;;;;;;;;;;;;13.77;100.00;98613.88;5072598;28;19923;-43
2022/09/17 07:29:41;;;;;;;;;;;;;;;13.49;100.00;98608.44;5070640;28;19920;-42
2022/09/17 07:32:06;;;;;;;;;;;;;;;13.90;100.00;98605.50;5065770;28;20450;-42
2022/09/17 07:34:32;;;;;;;;;;;;;;;13.56;100.00;98610.63;5072938;28;20381;-42
2022/09/17 07:36:57;;;;;;;;;;;;;;;13.46;100.00;98609.44;5064992;28;19955;-42
2022/09/17 07:39:22;;;;;;;;;;;;;;;13.98;100.00;98605.94;5067009;28;19959;-42
2022/09/17 07:41:47;;;;;;;;;;;;;;;14.05;100.00;98615.06;5052192;28;19974;-42
2022/09/17 07:44:13;;;;;;;;;;;;;;;14.53;100.00;98603.00;5069044;28;19920;-42
2022/09/17 07:46:38;;;;;;;;;;;;;;;15.02;100.00;98602.88;5071493;28;20945;-42
2022/09/17 07:49:03;;;;;;;;;;;;;;;14.47;100.00;98597.31;5073306;28;20381;-43
2022/09/17 07:51:28;;;;;;;;;;;;;;;15.22;100.00;98591.38;5072829;28;20471;-42
2022/09/17 07:53:54;;;;;;;;;;;;;;;14.73;100.00;98588.97;5069570;28;20582;-42
2022/09/17 07:56:20;;;;;;;;;;;;;;;14.48;100.00;98594.63;5073078;28;20799;-42
2022/09/17 07:58:45;;;;;;;;;;;;;;;14.18;100.00;98603.13;5074407;28;20031;-43
2022/09/17 08:01:11;;;;;;;;;;;;;;;14.61;100.00;98595.66;5073136;28;20815;-42
2022/09/17 08:03:36;;;;;;;;;;;;;;;14.17;100.00;98593.69;5073586;28;20343;-42
2022/09/17 08:06:03;;;;;;;;;;;;;;;14.11;100.00;98586.25;5053698;28;19916;-42
2022/09/17 08:08:29;;;;;;;;;;;;;;;14.89;100.00;98578.56;5074799;28;19963;-42
2022/09/17 08:10:54;;;;;;;;;;;;;;;14.56;100.00;98579.53;5071636;28;20003;-42
2022/09/17 08:13:19;;;;;;;;;;;;;;;14.50;100.00;98571.22;5074530;28;19920;-42
2022/09/17 08:15:45;;;;;;;;;;;;;;;14.72;100.00;98578.69;5071444;28;19961;-42
2022/09/17 08:18:10;;;;;;;;;;;;;;;15.63;100.00;98561.34;5073816;28;19923;-42
2022/09/17 08:20:35;;;;;;;;;;;;;;;15.40;100.00;98563.53;5071522;28;19916;-42
2022/09/17 08:23:01;;;;;;;;;;;;;;;14.32;100.00;98567.88;5038269;28;20383;-42
2022/09/17 08:25:26;;;;;;;;;;;;;;;15.09;100.00;98571.41;5070519;28;19920;-42
2022/09/17 08:27:54;;;;;;;;;;;;;;;14.86;100.00;98576.16;5070558;28;20679;-42
2022/09/17 08:30:19;;;;;;;;;;;;;;;14.75;100.00;98568.16;5062086;28;19920;-42
2022/09/17 08:32:44;;;;;;;;;;;;;;;14.88;100.00;98571.72;5071083;28;19927;-42
2022/09/17 08:35:10;;;;;;;;;;;;;;;14.29;100.00;98570.66;5070174;28;19927;-42
2022/09/17 08:37:35;;;;;;;;;;;;;;;14.01;100.00;98575.53;5066103;28;19920;-42
2022/09/17 08:40:01;;;;;;;;;;;;;;;14.91;100.00;98575.91;5071694;28;19972;-42
2022/09/17 08:42:30;;;;;;;;;;;;;;;14.14;100.00;98565.38;5072728;28;19920;-42
2022/09/17 08:44:55;;;;;;;;;;;;;;;15.48;100.00;98565.66;5052266;28;19927;-42
2022/09/17 08:47:35;;;;;;;;;;;;;;;14.52;100.00;98564.22;5053054;28;19920;-42
2022/09/17 08:50:02;;;;;;;;;;;;;;;15.21;100.00;98563.78;5071011;28;19921;-42
2022/09/17 08:52:46;;;;;;;;;;;;;;;15.46;100.00;98563.19;5054189;28;19944;-43
2022/09/17 08:55:33;;;;;;;;;;;;;;;14.93;100.00;98567.09;5072238;28;19927;-42
2022/09/17 08:58:11;;;;;;;;;;;;;;;15.91;100.00;98559.72;5032146;28;20027;-42
2022/09/17 09:00:49;;;;;;;;;;;;;;;15.13;100.00;98554.78;5072226;28;19916;-42
2022/09/17 09:03:19;;;;;;;;;;;;;;;15.02;100.00;98555.38;5053442;28;19958;-42
2022/09/17 09:05:45;;;;;;;;;;;;;;;14.54;100.00;98563.22;5070117;28;20020;-42
2022/09/17 09:08:19;;;;;;;;;;;;;;;14.96;100.00;98569.53;5053688;28;19989;-42
2022/09/17 09:11:04;;;;;;;;;;;;;;;15.52;100.00;98564.56;5053895;28;20037;-43
2022/09/17 09:13:35;;;;;;;;;;;;;;;15.92;100.00;98563.97;5060629;28;19923;-41
2022/09/17 09:16:01;;;;;;;;;;;;;;;15.96;100.00;98555.06;5064005;28;20145;-41
2022/09/17 09:18:30;;;;;;;;;;;;;;;15.81;100.00;98551.66;5052154;28;20659;-42
2022/09/17 09:20:58;;;;;;;;;;;;;;;15.22;100.00;98559.44;5051792;28;19920;-42
2022/09/17 09:23:23;;;;;;;;;;;;;;;15.48;100.00;98563.91;5066728;28;19927;-42
2022/09/17 09:25:51;;;;;;;;;;;;;;;15.76;100.00;98559.72;5063571;28;19923;-42
2022/09/17 09:28:31;;;;;;;;;;;;;;;16.06;100.00;98550.97;5066022;28;19977;-42
2022/09/17 09:30:57;;;;;;;;;;;;;;;16.43;100.00;98557.31;5047756;28;19926;-42
2022/09/17 09:33:32;;;;;;;;;;;;;;;16.60;100.00;98560.59;5076087;28;19920;-42
2022/09/17 09:35:57;;;;;;;;;;;;;;;17.29;100.00;98549.16;5038353;28;19924;-42
2022/09/17 09:38:29;;;;;;;;;;;;;;;15.45;100.00;98560.66;5068373;28;19920;-42
2022/09/17 09:41:08;;;;;;;;;;;;;;;16.18;100.00;98559.78;5066050;28;19931;-42
2022/09/17 09:43:35;;;;;;;;;;;;;;;15.69;100.00;98553.16;5075607;28;20011;-42
2022/09/17 09:46:11;;;;;;;;;;;;;;;15.26;100.00;98566.09;5072779;28;19967;-42
2022/09/17 09:48:39;;;;;;;;;;;;;;;15.75;100.00;98550.25;5073224;28;20499;-42
2022/09/17 09:51:17;;;;;;;;;;;;;;;15.10;100.00;98553.19;5072474;28;19920;-42
2022/09/17 09:53:51;;;;;;;;;;;;;;;15.14;100.00;98553.84;5073217;28;19927;-42
2022/09/17 09:56:32;;;;;;;;;;;;;;;14.79;100.00;98565.28;5071780;28;20729;-42
2022/09/17 09:58:57;;;;;;;;;;;;;;;15.37;100.00;98553.34;5040527;28;19977;-42
2022/09/17 10:01:26;;;;;;;;;;;;;;;15.21;100.00;98552.53;5046176;28;20552;-42
2022/09/17 10:03:52;;;;;;;;;;;;;;;15.43;100.00;98552.97;5067095;28;20002;-42
2022/09/17 10:06:20;;;;;;;;;;;;;;;15.82;100.00;98548.94;5067409;28;19924;-41
2022/09/17 10:08:49;;;;;;;;;;;;;;;14.89;100.00;98570.78;5055742;28;20043;-41
2022/09/17 10:11:22;;;;;;;;;;;;;;;15.36;100.00;98563.81;5045022;28;19927;-41
2022/09/17 10:13:47;;;;;;;;;;;;;;;15.64;100.00;98547.41;5068205;28;19950;-41
2022/09/17 10:16:15;;;;;;;;;;;;;;;15.62;100.00;98551.88;5051284;28;20373;-41
2022/09/17 10:18:40;;;;;;;;;;;;;;;16.22;100.00;98551.69;5050249;28;20000;-42
2022/09/17 10:21:06;;;;;;;;;;;;;;;16.42;100.00;98547.00;5067114;28;20855;-41
2022/09/17 10:23:33;;;;;;;;;;;;;;;15.29;100.00;98545.16;5053893;28;19920;-41
2022/09/17 10:25:58;;;;;;;;;;;;;;;16.57;100.00;98535.63;5036112;28;19995;-41
2022/09/17 10:28:27;;;;;;;;;;;;;;;17.19;100.00;98519.47;5067208;28;20401;-42
2022/09/17 10:31:00;;;;;;;;;;;;;;;17.49;100.00;98518.34;5035951;28;19929;-42
2022/09/17 10:33:32;;;;;;;;;;;;;;;17.25;100.00;98515.66;5035921;28;20023;-42
2022/09/17 10:36:08;;;;;;;;;;;;;;;16.65;100.00;98528.19;5048002;28;20435;-42
2022/09/17 10:38:35;;;;;;;;;;;;;;;16.49;100.00;98527.50;5053437;28;19927;-42
2022/09/17 10:41:10;;;;;;;;;;;;;;;16.61;100.00;98526.72;5066325;28;19920;-42
2022/09/17 10:43:35;;;;;;;;;;;;;;;15.79;100.00;98538.75;5073233;28;20100;-42
2022/09/17 10:46:01;;;;;;;;;;;;;;;16.37;100.00;98521.28;5075418;28;19916;-42
2022/09/17 10:48:28;;;;;;;;;;;;;;;16.22;100.00;98520.53;5057955;28;19966;-42
2022/09/17 10:50:53;;;;;;;;;;;;;;;15.59;100.00;98506.16;5075796;28;20424;-42
2022/09/17 10:53:19;;;;;;;;;;;;;;;14.82;100.00;98538.34;5056685;28;19920;-42
2022/09/17 10:55:59;;;;;;;;;;;;;;;14.79;100.00;98557.50;5056175;28;19920;-42
2022/09/17 10:58:32;;;;;;;;;;;;;;;13.60;100.00;98569.94;5076168;28;19946;-42
2022/09/17 11:00:58;;;;;;;;;;;;;;;13.19;100.00;98576.25;5047878;28;19938;-42
2022/09/17 11:03:47;;;;;;;;;;;;;;;13.68;100.00;98572.94;5074451;28;20278;-42
2022/09/17 11:06:14;;;;;;;;;;;;;;;14.97;100.00;98560.81;5052035;28;19920;-42
2022/09/17 11:08:51;;;;;;;;;;;;;;;14.97;100.00;98555.66;5073981;28;19973;-42
2022/09/17 11:11:22;;;;;;;;;;;;;;;15.15;100.00;98553.75;5034219;28;19919;-42
2022/09/17 11:13:56;;;;;;;;;;;;;;;16.32;100.00;98551.94;5074222;28;19920;-42
2022/09/17 11:16:26;;;;;;;;;;;;;;;16.47;100.00;98544.97;5055382;28;19920;-42
2022/09/17 11:19:05;;;;;;;;;;;;;;;17.49;100.00;98534.81;5056292;28;20003;-42
2022/09/17 11:21:35;;;;;;;;;;;;;;;17.43;100.00;98535.22;5053709;28;19920;-42
2022/09/17 11:24:09;;;;;;;;;;;;;;;17.29;100.00;98523.16;5041499;28;20285;-42
2022/09/17 11:26:37;;;;;;;;;;;;;;;17.59;100.00;98524.59;5070056;28;19920;-42
2022/09/17 11:29:15;;;;;;;;;;;;;;;16.83;100.00;98536.59;5072153;28;20722;-42
2022/09/17 11:31:54;;;;;;;;;;;;;;;16.49;100.00;98545.69;5067105;28;19925;-42
2022/09/17 11:34:21;;;;;;;;;;;;;;;14.39;100.00;98566.63;5046599;28;20505;-44
2022/09/17 11:36:52;;;;;;;;;;;;;;;14.95;100.00;98565.25;5053218;28;20428;-43
2022/09/17 11:39:19;;;;;;;;;;;;;;;15.86;100.00;98560.81;5057297;28;20230;-43
2022/09/17 11:41:45;;;;;;;;;;;;;;;16.61;100.00;98544.91;5055165;28;19912;-43
2022/09/17 11:44:19;;;;;;;;;;;;;;;17.05;100.00;98543.81;5074823;28;19947;-44
2022/09/17 11:46:44;;;;;;;;;;;;;;;16.79;100.00;98539.47;5071888;28;19920;-44
2022/09/17 11:49:10;;;;;;;;;;;;;;;16.39;100.00;98531.59;5055314;28;19927;-43
2022/09/17 11:51:36;;;;;;;;;;;;;;;16.51;100.00;98534.28;5074471;28;19969;-43
2022/09/17 11:54:22;;;;;;;;;;;;;;;16.64;100.00;98521.31;5072776;28;19920;-43
2022/09/17 11:56:51;;;;;;;;;;;;;;;16.42;100.00;98526.19;5072951;28;19916;-43
2022/09/17 11:59:37;;;;;;;;;;;;;;;17.00;100.00;98525.06;5074639;28;19916;-43
2022/09/17 12:02:21;;;;;;;;;;;;;;;16.50;100.00;98519.59;5039932;28;20064;-43
2022/09/17 12:05:12;;;;;;;;;;;;;;;17.05;100.00;98523.00;5073829;28;19920;-43
2022/09/17 12:07:56;;;;;;;;;;;;;;;17.95;100.00;98507.41;5069823;28;19916;-43
2022/09/17 12:10:30;;;;;;;;;;;;;;;17.08;100.00;98520.22;5055535;28;19974;-43
2022/09/17 12:12:57;;;;;;;;;;;;;;;18.25;100.00;98501.78;5072860;28;19921;-43
2022/09/17 12:15:26;;;;;;;;;;;;;;;17.36;100.00;98497.53;5073304;28;19931;-43
2022/09/17 12:17:53;;;;;;;;;;;;;;;16.64;100.00;98500.50;5054477;28;19961;-43
2022/09/17 12:20:24;;;;;;;;;;;;;;;17.11;100.00;98488.78;5074211;28;20439;-42
2022/09/17 12:22:49;;;;;;;;;;;;;;;16.65;100.00;98490.94;5055833;28;19920;-43
2022/09/17 12:25:14;;;;;;;;;;;;;;;17.50;100.00;98496.59;5054788;28;19920;-42
2022/09/17 12:27:51;;;;;;;;;;;;;;;16.52;100.00;98496.09;5054605;28;19915;-43
2022/09/17 12:30:20;;;;;;;;;;;;;;;15.69;100.00;98499.50;5073693;28;19916;-43
2022/09/17 12:32:49;;;;;;;;;;;;;;;16.55;100.00;98503.69;5056563;28;20303;-43
2022/09/17 12:35:23;;;;;;;;;;;;;;;16.91;100.00;98497.06;5071194;28;19920;-43
2022/09/17 12:37:57;;;;;;;;;;;;;;;17.30;100.00;98488.34;5071060;28;19927;-43
2022/09/17 12:40:35;;;;;;;;;;;;;;;17.46;100.00;98488.16;5072159;28;19924;-42